MAS22 RPVD-RPLL
Flight info
| Callsign | MAS22 |
|---|---|
| Flight time | 1h 2m |
| Altitude | 32000 |
| Route | NANAS6R NANAS B472 IBAGO IBAGO3R |
| Aircraft | B738/M-SDE2E3FGHIRWXY/LB1 |
Departure
| Time | 2026-05-05 16:02 |
|---|---|
| Airport | Sibulan Airport (RPVD) |
Arrival
| Time | 2026-05-05 17:04 |
|---|---|
| Airport | Ninoy Aquino International Airport (RPLL) |
| Time | Latitude | Longitude | Altitude | Speed | Heading |
|---|---|---|---|---|---|
| 2026-05-05 15:46 | 9.33337 | 123.29561 | 43 ft | 0 kts | 201° |
| 2026-05-05 15:57 | 9.33344 | 123.29565 | 43 ft | 2 kts | 247° |
| 2026-05-05 15:58 | 9.33346 | 123.29570 | 43 ft | 0 kts | 289° |
| 2026-05-05 16:00 | 9.33353 | 123.29553 | 42 ft | 9 kts | 294° |
| 2026-05-05 16:00 | 9.33380 | 123.29521 | 44 ft | 0 kts | 317° |
| 2026-05-05 16:01 | 9.33400 | 123.29503 | 46 ft | 7 kts | 317° |
| 2026-05-05 16:01 | 9.33433 | 123.29472 | 48 ft | 6 kts | 324° |
| 2026-05-05 16:01 | 9.33457 | 123.29491 | 48 ft | 2 kts | 87° |
| 2026-05-05 16:02 | 9.33456 | 123.29545 | 45 ft | 41 kts | 93° |
| 2026-05-05 16:02 | 9.33418 | 123.30193 | 20 ft | 139 kts | 92° |
| 2026-05-05 16:02 | 9.33362 | 123.31381 | 487 ft | 179 kts | 92° |
| 2026-05-05 16:02 | 9.33290 | 123.32646 | 1709 ft | 179 kts | 93° |
| 2026-05-05 16:03 | 9.33204 | 123.33992 | 2500 ft | 205 kts | 92° |
| 2026-05-05 16:03 | 9.33120 | 123.35532 | 2836 ft | 231 kts | 92° |
| 2026-05-05 16:03 | 9.33029 | 123.37197 | 3472 ft | 244 kts | 92° |
| 2026-05-05 16:03 | 9.32932 | 123.38944 | 4260 ft | 252 kts | 92° |
| 2026-05-05 16:04 | 9.32820 | 123.40117 | 4960 ft | 252 kts | 102° |
| 2026-05-05 16:04 | 9.31630 | 123.42133 | 6263 ft | 260 kts | 138° |
| 2026-05-05 16:04 | 9.30027 | 123.43018 | 7150 ft | 268 kts | 163° |
| 2026-05-05 16:04 | 9.28793 | 123.43174 | 7734 ft | 273 kts | 181° |
| 2026-05-05 16:05 | 9.26942 | 123.42664 | 8609 ft | 282 kts | 208° |
| 2026-05-05 16:05 | 9.25471 | 123.41339 | 9463 ft | 291 kts | 234° |
| 2026-05-05 16:05 | 9.24686 | 123.39409 | 10120 ft | 304 kts | 262° |
| 2026-05-05 16:05 | 9.24798 | 123.37218 | 10508 ft | 326 kts | 287° |
| 2026-05-05 16:06 | 9.25866 | 123.35167 | 11060 ft | 336 kts | 309° |
| 2026-05-05 16:06 | 9.27549 | 123.33507 | 11778 ft | 340 kts | 323° |
| 2026-05-05 16:06 | 9.29496 | 123.32124 | 12607 ft | 342 kts | 328° |
| 2026-05-05 16:06 | 9.31490 | 123.30837 | 13378 ft | 346 kts | 329° |
| 2026-05-05 16:07 | 9.33547 | 123.29526 | 14110 ft | 350 kts | 328° |
| 2026-05-05 16:07 | 9.35614 | 123.28189 | 14794 ft | 354 kts | 328° |
| 2026-05-05 16:07 | 9.37694 | 123.26818 | 15459 ft | 359 kts | 328° |
| 2026-05-05 16:07 | 9.39789 | 123.25416 | 16134 ft | 363 kts | 327° |
| 2026-05-05 16:08 | 9.41903 | 123.23987 | 16804 ft | 367 kts | 327° |
| 2026-05-05 16:08 | 9.44037 | 123.22535 | 17469 ft | 371 kts | 327° |
| 2026-05-05 16:08 | 9.46191 | 123.21063 | 18122 ft | 376 kts | 327° |
| 2026-05-05 16:08 | 9.48342 | 123.19592 | 18681 ft | 380 kts | 327° |
| 2026-05-05 16:09 | 9.50541 | 123.18086 | 19232 ft | 383 kts | 327° |
| 2026-05-05 16:09 | 9.52760 | 123.16566 | 19788 ft | 387 kts | 327° |
| 2026-05-05 16:09 | 9.55004 | 123.15028 | 20330 ft | 391 kts | 327° |
| 2026-05-05 16:09 | 9.57271 | 123.13474 | 20857 ft | 395 kts | 327° |
| 2026-05-05 16:10 | 9.59559 | 123.11906 | 21386 ft | 399 kts | 327° |
| 2026-05-05 16:10 | 9.61877 | 123.10318 | 21901 ft | 403 kts | 327° |
| 2026-05-05 16:10 | 9.64211 | 123.08717 | 22412 ft | 407 kts | 327° |
| 2026-05-05 16:10 | 9.66567 | 123.07102 | 22918 ft | 411 kts | 327° |
| 2026-05-05 16:11 | 9.68916 | 123.05490 | 23397 ft | 414 kts | 327° |
| 2026-05-05 16:11 | 9.76146 | 123.00529 | 24731 ft | 420 kts | 327° |
| 2026-05-05 16:12 | 9.78581 | 122.98865 | 25171 ft | 422 kts | 328° |
| 2026-05-05 16:12 | 9.83826 | 122.96132 | 25982 ft | 427 kts | 336° |
| 2026-05-05 16:13 | 9.92036 | 122.92408 | 27209 ft | 433 kts | 336° |
| 2026-05-05 16:13 | 9.94758 | 122.91148 | 27552 ft | 437 kts | 336° |
| 2026-05-05 16:13 | 9.97534 | 122.89852 | 27916 ft | 440 kts | 335° |
| 2026-05-05 16:14 | 10.03113 | 122.87229 | 28782 ft | 441 kts | 335° |
| 2026-05-05 16:14 | 10.08696 | 122.84602 | 29534 ft | 445 kts | 335° |
| 2026-05-05 16:15 | 10.14363 | 122.81936 | 30136 ft | 451 kts | 335° |
| 2026-05-05 16:15 | 10.20076 | 122.79241 | 30751 ft | 454 kts | 334° |
| 2026-05-05 16:16 | 10.25781 | 122.76522 | 31303 ft | 458 kts | 334° |
| 2026-05-05 16:16 | 10.31583 | 122.73754 | 31828 ft | 461 kts | 334° |
| 2026-05-05 16:17 | 10.40406 | 122.69555 | 31881 ft | 466 kts | 334° |
| 2026-05-05 16:18 | 10.49147 | 122.65435 | 31894 ft | 461 kts | 335° |
| 2026-05-05 16:19 | 10.57880 | 122.61315 | 31892 ft | 463 kts | 334° |
| 2026-05-05 16:19 | 10.66387 | 122.57297 | 31876 ft | 431 kts | 334° |
| 2026-05-05 16:20 | 10.77150 | 122.52206 | 31900 ft | 427 kts | 334° |
| 2026-05-05 16:22 | 10.90743 | 122.46032 | 31907 ft | 428 kts | 336° |
| 2026-05-05 16:23 | 11.01709 | 122.41357 | 31916 ft | 428 kts | 336° |
| 2026-05-05 16:23 | 11.09934 | 122.37807 | 31924 ft | 427 kts | 336° |
| 2026-05-05 16:24 | 11.15420 | 122.35438 | 31930 ft | 427 kts | 336° |
| 2026-05-05 16:25 | 11.23634 | 122.31890 | 31925 ft | 427 kts | 336° |
| 2026-05-05 16:25 | 11.31847 | 122.28335 | 31919 ft | 428 kts | 335° |
| 2026-05-05 16:26 | 11.42786 | 122.23598 | 31918 ft | 428 kts | 336° |
| 2026-05-05 16:27 | 11.48279 | 122.21219 | 31910 ft | 428 kts | 336° |
| 2026-05-05 16:27 | 11.53759 | 122.18842 | 31914 ft | 428 kts | 335° |
| 2026-05-05 16:28 | 11.59253 | 122.16459 | 31912 ft | 428 kts | 336° |
| 2026-05-05 16:28 | 11.64737 | 122.14079 | 31916 ft | 428 kts | 336° |
| 2026-05-05 16:29 | 11.70193 | 122.11712 | 31897 ft | 428 kts | 335° |
| 2026-05-05 16:29 | 11.75691 | 122.09324 | 31900 ft | 428 kts | 335° |
| 2026-05-05 16:30 | 11.81174 | 122.06942 | 31906 ft | 428 kts | 336° |
| 2026-05-05 16:30 | 11.86614 | 122.04578 | 31904 ft | 427 kts | 336° |
| 2026-05-05 16:31 | 11.92072 | 122.02205 | 31903 ft | 426 kts | 336° |
| 2026-05-05 16:31 | 11.97530 | 121.99830 | 31904 ft | 425 kts | 335° |
| 2026-05-05 16:32 | 12.02979 | 121.97458 | 31907 ft | 425 kts | 335° |
| 2026-05-05 16:32 | 12.08425 | 121.95087 | 31903 ft | 425 kts | 336° |
| 2026-05-05 16:33 | 12.13871 | 121.92715 | 31906 ft | 425 kts | 336° |
| 2026-05-05 16:33 | 12.19280 | 121.90358 | 31904 ft | 425 kts | 335° |
| 2026-05-05 16:34 | 12.24728 | 121.87982 | 31904 ft | 426 kts | 335° |
| 2026-05-05 16:34 | 12.30186 | 121.85601 | 31901 ft | 425 kts | 336° |
| 2026-05-05 16:35 | 12.35632 | 121.83224 | 31908 ft | 425 kts | 336° |
| 2026-05-05 16:35 | 12.41085 | 121.80842 | 31903 ft | 425 kts | 336° |
| 2026-05-05 16:36 | 12.46525 | 121.78461 | 31908 ft | 425 kts | 335° |
| 2026-05-05 16:36 | 12.51925 | 121.76095 | 31906 ft | 424 kts | 335° |
| 2026-05-05 16:37 | 12.57362 | 121.73713 | 31912 ft | 424 kts | 335° |
| 2026-05-05 16:37 | 12.62792 | 121.71333 | 31911 ft | 423 kts | 335° |
| 2026-05-05 16:38 | 12.68171 | 121.68974 | 31915 ft | 423 kts | 335° |
| 2026-05-05 16:38 | 12.73584 | 121.66599 | 31912 ft | 419 kts | 335° |
| 2026-05-05 16:39 | 12.76228 | 121.65439 | 31892 ft | 405 kts | 335° |
| 2026-05-05 16:39 | 12.78785 | 121.64318 | 31893 ft | 392 kts | 335° |
| 2026-05-05 16:39 | 12.81222 | 121.63249 | 31901 ft | 380 kts | 335° |
| 2026-05-05 16:39 | 12.83618 | 121.62197 | 31822 ft | 370 kts | 335° |
| 2026-05-05 16:40 | 12.85980 | 121.61159 | 31575 ft | 366 kts | 335° |
| 2026-05-05 16:40 | 12.88323 | 121.60129 | 31182 ft | 367 kts | 335° |
| 2026-05-05 16:40 | 12.90700 | 121.59082 | 30378 ft | 380 kts | 335° |
| 2026-05-05 16:40 | 12.93207 | 121.57977 | 29140 ft | 403 kts | 336° |
| 2026-05-05 16:41 | 12.95806 | 121.56833 | 28385 ft | 409 kts | 336° |
| 2026-05-05 16:41 | 12.98419 | 121.55684 | 27951 ft | 406 kts | 336° |
| 2026-05-05 16:41 | 13.00967 | 121.54565 | 27614 ft | 401 kts | 336° |
| 2026-05-05 16:41 | 13.03514 | 121.53445 | 27235 ft | 397 kts | 336° |
| 2026-05-05 16:42 | 13.06048 | 121.52330 | 26799 ft | 395 kts | 336° |
| 2026-05-05 16:42 | 13.08570 | 121.51221 | 26369 ft | 394 kts | 336° |
| 2026-05-05 16:42 | 13.11082 | 121.50114 | 25969 ft | 392 kts | 336° |
| 2026-05-05 16:42 | 13.13582 | 121.49013 | 25577 ft | 390 kts | 336° |
| 2026-05-05 16:43 | 13.16069 | 121.47918 | 25189 ft | 388 kts | 336° |
| 2026-05-05 16:43 | 13.18546 | 121.46827 | 24798 ft | 386 kts | 336° |
| 2026-05-05 16:43 | 13.21011 | 121.45740 | 24414 ft | 384 kts | 336° |
| 2026-05-05 16:43 | 13.23466 | 121.44658 | 24036 ft | 382 kts | 336° |
| 2026-05-05 16:44 | 13.25875 | 121.43596 | 23659 ft | 381 kts | 336° |
| 2026-05-05 16:44 | 13.28288 | 121.42532 | 23169 ft | 374 kts | 336° |
| 2026-05-05 16:44 | 13.30672 | 121.41480 | 22488 ft | 371 kts | 336° |
| 2026-05-05 16:44 | 13.33041 | 121.40435 | 21828 ft | 369 kts | 337° |
| 2026-05-05 16:45 | 13.35390 | 121.39399 | 21276 ft | 364 kts | 337° |
| 2026-05-05 16:45 | 13.37692 | 121.38382 | 20841 ft | 356 kts | 337° |
| 2026-05-05 16:45 | 13.39958 | 121.37382 | 20480 ft | 353 kts | 337° |
| 2026-05-05 16:45 | 13.42202 | 121.36391 | 20099 ft | 348 kts | 337° |
| 2026-05-05 16:46 | 13.44406 | 121.35417 | 19720 ft | 340 kts | 337° |
| 2026-05-05 16:46 | 13.46557 | 121.34467 | 19353 ft | 333 kts | 337° |
| 2026-05-05 16:46 | 13.48651 | 121.33542 | 19006 ft | 330 kts | 337° |
| 2026-05-05 16:46 | 13.50755 | 121.32612 | 18645 ft | 327 kts | 337° |
| 2026-05-05 16:47 | 13.52865 | 121.31680 | 18341 ft | 334 kts | 337° |
| 2026-05-05 16:47 | 13.54903 | 121.30478 | 18099 ft | 341 kts | 317° |
| 2026-05-05 16:47 | 13.56520 | 121.28698 | 17584 ft | 343 kts | 311° |
| 2026-05-05 16:47 | 13.58089 | 121.26832 | 16958 ft | 346 kts | 311° |
| 2026-05-05 16:48 | 13.59655 | 121.24951 | 16347 ft | 346 kts | 311° |
| 2026-05-05 16:48 | 13.61221 | 121.23079 | 15740 ft | 343 kts | 311° |
| 2026-05-05 16:48 | 13.62756 | 121.21257 | 15155 ft | 340 kts | 311° |
| 2026-05-05 16:48 | 13.64305 | 121.19428 | 14588 ft | 337 kts | 312° |
| 2026-05-05 16:49 | 13.65843 | 121.17619 | 14026 ft | 335 kts | 312° |
| 2026-05-05 16:49 | 13.67375 | 121.15825 | 13435 ft | 332 kts | 312° |
| 2026-05-05 16:49 | 13.68898 | 121.14038 | 12799 ft | 330 kts | 312° |
| 2026-05-05 16:49 | 13.70412 | 121.12266 | 12187 ft | 328 kts | 312° |
| 2026-05-05 16:50 | 13.71907 | 121.10511 | 11588 ft | 325 kts | 312° |
| 2026-05-05 16:50 | 13.73391 | 121.08769 | 11072 ft | 320 kts | 312° |
| 2026-05-05 16:50 | 13.74354 | 121.07638 | 10857 ft | 313 kts | 312° |
| 2026-05-05 16:50 | 13.76229 | 121.05439 | 10461 ft | 308 kts | 312° |
| 2026-05-05 16:51 | 13.77645 | 121.03778 | 10164 ft | 310 kts | 312° |
| 2026-05-05 16:51 | 13.79064 | 121.02114 | 10037 ft | 311 kts | 312° |
| 2026-05-05 16:51 | 13.80015 | 121.00998 | 10018 ft | 312 kts | 312° |
| 2026-05-05 16:51 | 13.81474 | 120.99350 | 9991 ft | 309 kts | 320° |
| 2026-05-05 16:52 | 13.83303 | 120.98278 | 10005 ft | 301 kts | 344° |
| 2026-05-05 16:52 | 13.85359 | 120.97914 | 10008 ft | 301 kts | 356° |
| 2026-05-05 16:52 | 13.87449 | 120.97714 | 9994 ft | 302 kts | 356° |
| 2026-05-05 16:52 | 13.89544 | 120.97519 | 10000 ft | 302 kts | 356° |
| 2026-05-05 16:53 | 13.91640 | 120.97311 | 9987 ft | 302 kts | 356° |
| 2026-05-05 16:53 | 13.93740 | 120.97094 | 9989 ft | 302 kts | 356° |
| 2026-05-05 16:53 | 13.95830 | 120.96874 | 9988 ft | 302 kts | 356° |
| 2026-05-05 16:53 | 13.97902 | 120.96655 | 9995 ft | 302 kts | 356° |
| 2026-05-05 16:54 | 13.99992 | 120.96435 | 10000 ft | 302 kts | 356° |
| 2026-05-05 16:54 | 14.02086 | 120.96214 | 9993 ft | 302 kts | 356° |
| 2026-05-05 16:54 | 14.04174 | 120.95993 | 9988 ft | 302 kts | 356° |
| 2026-05-05 16:54 | 14.06258 | 120.95773 | 9984 ft | 298 kts | 356° |
| 2026-05-05 16:55 | 14.08300 | 120.95556 | 9931 ft | 288 kts | 356° |
| 2026-05-05 16:55 | 14.10272 | 120.95347 | 9521 ft | 284 kts | 356° |
| 2026-05-05 16:55 | 14.12218 | 120.95143 | 8999 ft | 284 kts | 356° |
| 2026-05-05 16:55 | 14.14187 | 120.94935 | 8509 ft | 283 kts | 356° |
| 2026-05-05 16:56 | 14.16136 | 120.94729 | 8108 ft | 278 kts | 355° |
| 2026-05-05 16:56 | 14.17981 | 120.94244 | 7800 ft | 273 kts | 334° |
| 2026-05-05 16:56 | 14.19605 | 120.93270 | 7495 ft | 266 kts | 330° |
| 2026-05-05 16:56 | 14.21124 | 120.92346 | 7324 ft | 250 kts | 331° |
| 2026-05-05 16:57 | 14.22646 | 120.91432 | 6686 ft | 254 kts | 331° |
| 2026-05-05 16:57 | 14.24186 | 120.90515 | 6078 ft | 255 kts | 332° |
| 2026-05-05 16:57 | 14.25733 | 120.89599 | 5443 ft | 256 kts | 331° |
| 2026-05-05 16:57 | 14.27278 | 120.88685 | 4821 ft | 256 kts | 331° |
| 2026-05-05 16:58 | 14.28783 | 120.87798 | 4678 ft | 239 kts | 332° |
| 2026-05-05 16:58 | 14.30233 | 120.86952 | 4569 ft | 244 kts | 332° |
| 2026-05-05 16:58 | 14.31708 | 120.86091 | 4338 ft | 248 kts | 332° |
| 2026-05-05 16:58 | 14.33214 | 120.85209 | 4109 ft | 249 kts | 332° |
| 2026-05-05 16:59 | 14.34719 | 120.84328 | 3885 ft | 247 kts | 332° |
| 2026-05-05 16:59 | 14.36208 | 120.83457 | 3650 ft | 243 kts | 332° |
| 2026-05-05 16:59 | 14.37713 | 120.82717 | 3403 ft | 237 kts | 350° |
| 2026-05-05 16:59 | 14.39308 | 120.82824 | 3193 ft | 229 kts | 24° |
| 2026-05-05 17:00 | 14.40611 | 120.83717 | 3000 ft | 223 kts | 49° |
| 2026-05-05 17:00 | 14.41486 | 120.84991 | 2820 ft | 217 kts | 62° |
| 2026-05-05 17:00 | 14.42215 | 120.86320 | 2614 ft | 208 kts | 63° |
| 2026-05-05 17:00 | 14.42907 | 120.87598 | 2408 ft | 199 kts | 63° |
| 2026-05-05 17:01 | 14.43578 | 120.88824 | 2217 ft | 191 kts | 62° |
| 2026-05-05 17:01 | 14.44211 | 120.89975 | 2028 ft | 180 kts | 60° |
| 2026-05-05 17:01 | 14.44802 | 120.91044 | 1910 ft | 162 kts | 61° |
| 2026-05-05 17:01 | 14.45331 | 120.91997 | 1733 ft | 144 kts | 61° |
| 2026-05-05 17:02 | 14.45813 | 120.92869 | 1606 ft | 138 kts | 62° |
| 2026-05-05 17:02 | 14.46291 | 120.93730 | 1400 ft | 137 kts | 63° |
| 2026-05-05 17:02 | 14.46762 | 120.94578 | 1246 ft | 135 kts | 62° |
| 2026-05-05 17:02 | 14.47234 | 120.95428 | 1081 ft | 138 kts | 61° |
| 2026-05-05 17:03 | 14.47711 | 120.96284 | 903 ft | 138 kts | 61° |
| 2026-05-05 17:03 | 14.48195 | 120.97135 | 731 ft | 138 kts | 59° |
| 2026-05-05 17:03 | 14.48686 | 120.97977 | 574 ft | 137 kts | 62° |
| 2026-05-05 17:03 | 14.49144 | 120.98822 | 421 ft | 134 kts | 59° |
| 2026-05-05 17:04 | 14.49608 | 120.99646 | 238 ft | 128 kts | 59° |
| 2026-05-05 17:04 | 14.50023 | 121.00420 | 53 ft | 115 kts | 64° |
| 2026-05-05 17:04 | 14.50362 | 121.01050 | 45 ft | 81 kts | 61° |
| 2026-05-05 17:04 | 14.50574 | 121.01426 | 47 ft | 47 kts | 59° |
| 2026-05-05 17:05 | 14.50752 | 121.01708 | 49 ft | 38 kts | 39° |
| 2026-05-05 17:05 | 14.50882 | 121.01779 | 51 ft | 13 kts | 333° |
| 2026-05-05 17:05 | 14.50887 | 121.01689 | 53 ft | 14 kts | 281° |
| 2026-05-05 17:05 | 14.50912 | 121.01626 | 54 ft | 8 kts | 267° |
| 2026-05-05 17:06 | 14.50888 | 121.01567 | 51 ft | 10 kts | 242° |
| 2026-05-05 17:06 | 14.50851 | 121.01499 | 51 ft | 12 kts | 240° |
| 2026-05-05 17:06 | 14.50809 | 121.01423 | 49 ft | 12 kts | 240° |
| 2026-05-05 17:06 | 14.50769 | 121.01353 | 48 ft | 8 kts | 239° |
| 2026-05-05 17:07 | 14.50768 | 121.01312 | 48 ft | 5 kts | 311° |
| 2026-05-05 17:07 | 14.50804 | 121.01323 | 49 ft | 2 kts | 22° |
| 2026-05-05 17:07 | 14.50825 | 121.01316 | 48 ft | 4 kts | 338° |
| 2026-05-05 17:07 | 14.50847 | 121.01304 | 49 ft | 4 kts | 328° |
| 2026-05-05 17:08 | 14.50848 | 121.01304 | 49 ft | 0 kts | 328° |